sensor_id;sensor_type;location;lat;lon;timestamp;P1;durP1;ratioP1;P2;durP2;ratioP2
10705;SDS011;5404;42.656;23.336;2023-08-01T00:01:31;3.58;;;2.58;;
10705;SDS011;5404;42.656;23.336;2023-08-01T00:03:57;4.43;;;2.50;;
10705;SDS011;5404;42.656;23.336;2023-08-01T00:06:22;3.05;;;2.15;;
10705;SDS011;5404;42.656;23.336;2023-08-01T00:08:49;4.53;;;2.60;;
10705;SDS011;5404;42.656;23.336;2023-08-01T00:11:15;4.32;;;2.50;;
10705;SDS011;5404;42.656;23.336;2023-08-01T00:13:41;6.50;;;2.63;;
10705;SDS011;5404;42.656;23.336;2023-08-01T00:16:07;3.17;;;2.50;;
10705;SDS011;5404;42.656;23.336;2023-08-01T00:18:33;4.55;;;2.60;;
10705;SDS011;5404;42.656;23.336;2023-08-01T00:20:58;6.75;;;2.45;;
10705;SDS011;5404;42.656;23.336;2023-08-01T00:23:24;4.30;;;2.28;;
10705;SDS011;5404;42.656;23.336;2023-08-01T00:25:50;3.33;;;2.33;;
10705;SDS011;5404;42.656;23.336;2023-08-01T00:28:19;5.38;;;2.22;;
10705;SDS011;5404;42.656;23.336;2023-08-01T00:30:46;3.83;;;2.72;;
10705;SDS011;5404;42.656;23.336;2023-08-01T00:33:12;5.18;;;2.55;;
10705;SDS011;5404;42.656;23.336;2023-08-01T00:35:38;6.93;;;2.20;;
10705;SDS011;5404;42.656;23.336;2023-08-01T00:38:03;7.25;;;2.60;;
10705;SDS011;5404;42.656;23.336;2023-08-01T00:40:32;3.53;;;2.47;;
10705;SDS011;5404;42.656;23.336;2023-08-01T00:42:58;5.93;;;2.38;;
10705;SDS011;5404;42.656;23.336;2023-08-01T00:45:27;3.13;;;2.35;;
10705;SDS011;5404;42.656;23.336;2023-08-01T00:47:55;3.47;;;2.40;;
10705;SDS011;5404;42.656;23.336;2023-08-01T00:50:21;4.85;;;2.70;;
10705;SDS011;5404;42.656;23.336;2023-08-01T00:52:48;3.55;;;2.25;;
10705;SDS011;5404;42.656;23.336;2023-08-01T00:57:42;3.20;;;2.30;;
10705;SDS011;5404;42.656;23.336;2023-08-01T01:00:08;9.40;;;2.63;;
10705;SDS011;5404;42.656;23.336;2023-08-01T01:02:34;2.53;;;2.10;;
10705;SDS011;5404;42.656;23.336;2023-08-01T01:05:00;4.80;;;2.88;;
10705;SDS011;5404;42.656;23.336;2023-08-01T01:07:27;3.85;;;2.47;;
10705;SDS011;5404;42.656;23.336;2023-08-01T01:09:54;4.10;;;2.72;;
10705;SDS011;5404;42.656;23.336;2023-08-01T01:12:19;10.35;;;3.35;;
10705;SDS011;5404;42.656;23.336;2023-08-01T01:14:45;4.75;;;2.50;;
10705;SDS011;5404;42.656;23.336;2023-08-01T01:17:10;6.65;;;2.80;;
10705;SDS011;5404;42.656;23.336;2023-08-01T01:19:35;3.85;;;2.28;;
10705;SDS011;5404;42.656;23.336;2023-08-01T01:22:02;6.00;;;2.40;;
10705;SDS011;5404;42.656;23.336;2023-08-01T01:24:29;8.43;;;2.60;;
10705;SDS011;5404;42.656;23.336;2023-08-01T01:26:56;4.10;;;2.53;;
10705;SDS011;5404;42.656;23.336;2023-08-01T01:29:25;9.82;;;2.67;;
10705;SDS011;5404;42.656;23.336;2023-08-01T01:31:51;5.30;;;3.33;;
10705;SDS011;5404;42.656;23.336;2023-08-01T01:34:17;6.35;;;2.25;;
10705;SDS011;5404;42.656;23.336;2023-08-01T01:36:43;4.45;;;2.50;;
10705;SDS011;5404;42.656;23.336;2023-08-01T01:39:08;8.55;;;2.50;;
10705;SDS011;5404;42.656;23.336;2023-08-01T01:41:34;3.45;;;2.38;;
10705;SDS011;5404;42.656;23.336;2023-08-01T01:43:59;4.70;;;2.97;;
10705;SDS011;5404;42.656;23.336;2023-08-01T01:46:25;8.65;;;2.33;;
10705;SDS011;5404;42.656;23.336;2023-08-01T01:48:50;5.35;;;2.47;;
10705;SDS011;5404;42.656;23.336;2023-08-01T01:51:16;4.13;;;2.65;;
10705;SDS011;5404;42.656;23.336;2023-08-01T01:53:41;4.10;;;2.42;;
10705;SDS011;5404;42.656;23.336;2023-08-01T01:56:07;8.68;;;2.70;;
10705;SDS011;5404;42.656;23.336;2023-08-01T01:58:32;2.75;;;2.17;;
10705;SDS011;5404;42.656;23.336;2023-08-01T02:00:58;5.63;;;2.53;;
10705;SDS011;5404;42.656;23.336;2023-08-01T02:03:23;3.28;;;2.20;;
10705;SDS011;5404;42.656;23.336;2023-08-01T02:05:49;5.25;;;2.53;;
10705;SDS011;5404;42.656;23.336;2023-08-01T02:08:14;5.03;;;2.33;;
10705;SDS011;5404;42.656;23.336;2023-08-01T02:10:39;16.60;;;2.58;;
10705;SDS011;5404;42.656;23.336;2023-08-01T02:13:05;8.25;;;2.53;;
10705;SDS011;5404;42.656;23.336;2023-08-01T02:15:30;3.10;;;2.17;;
10705;SDS011;5404;42.656;23.336;2023-08-01T02:17:56;5.13;;;2.70;;
10705;SDS011;5404;42.656;23.336;2023-08-01T02:20:21;2.97;;;2.42;;
10705;SDS011;5404;42.656;23.336;2023-08-01T02:22:47;3.55;;;2.03;;
10705;SDS011;5404;42.656;23.336;2023-08-01T02:25:12;4.97;;;2.35;;
10705;SDS011;5404;42.656;23.336;2023-08-01T02:27:38;6.88;;;3.17;;
10705;SDS011;5404;42.656;23.336;2023-08-01T02:30:03;6.95;;;2.63;;
10705;SDS011;5404;42.656;23.336;2023-08-01T02:32:30;6.38;;;2.60;;
10705;SDS011;5404;42.656;23.336;2023-08-01T02:34:55;3.97;;;2.60;;
10705;SDS011;5404;42.656;23.336;2023-08-01T02:37:21;4.22;;;2.47;;
10705;SDS011;5404;42.656;23.336;2023-08-01T02:39:46;3.55;;;2.03;;
10705;SDS011;5404;42.656;23.336;2023-08-01T02:42:12;7.53;;;2.65;;
10705;SDS011;5404;42.656;23.336;2023-08-01T02:44:37;4.28;;;3.35;;
10705;SDS011;5404;42.656;23.336;2023-08-01T02:47:03;3.25;;;2.25;;
10705;SDS011;5404;42.656;23.336;2023-08-01T02:49:28;6.65;;;2.65;;
10705;SDS011;5404;42.656;23.336;2023-08-01T02:51:54;5.82;;;2.53;;
10705;SDS011;5404;42.656;23.336;2023-08-01T02:54:19;4.32;;;2.42;;
10705;SDS011;5404;42.656;23.336;2023-08-01T02:56:44;2.97;;;2.38;;
10705;SDS011;5404;42.656;23.336;2023-08-01T02:59:10;3.03;;;2.55;;
10705;SDS011;5404;42.656;23.336;2023-08-01T03:01:36;4.07;;;2.50;;
10705;SDS011;5404;42.656;23.336;2023-08-01T03:04:02;5.78;;;3.10;;
10705;SDS011;5404;42.656;23.336;2023-08-01T03:06:28;4.10;;;2.55;;
10705;SDS011;5404;42.656;23.336;2023-08-01T03:08:54;4.65;;;2.55;;
10705;SDS011;5404;42.656;23.336;2023-08-01T03:11:20;6.72;;;3.05;;
10705;SDS011;5404;42.656;23.336;2023-08-01T03:13:45;5.03;;;2.70;;
10705;SDS011;5404;42.656;23.336;2023-08-01T03:16:11;4.63;;;2.55;;
10705;SDS011;5404;42.656;23.336;2023-08-01T03:18:36;7.90;;;2.85;;
10705;SDS011;5404;42.656;23.336;2023-08-01T03:21:01;10.10;;;2.63;;
10705;SDS011;5404;42.656;23.336;2023-08-01T03:23:28;6.07;;;2.65;;
10705;SDS011;5404;42.656;23.336;2023-08-01T03:25:54;4.22;;;2.60;;
10705;SDS011;5404;42.656;23.336;2023-08-01T03:28:20;4.63;;;2.80;;
10705;SDS011;5404;42.656;23.336;2023-08-01T03:30:45;7.47;;;2.75;;
10705;SDS011;5404;42.656;23.336;2023-08-01T03:33:14;21.40;;;3.30;;
10705;SDS011;5404;42.656;23.336;2023-08-01T03:35:40;11.15;;;3.33;;
10705;SDS011;5404;42.656;23.336;2023-08-01T03:38:05;17.58;;;3.28;;
10705;SDS011;5404;42.656;23.336;2023-08-01T03:40:30;5.63;;;2.95;;
10705;SDS011;5404;42.656;23.336;2023-08-01T03:42:56;13.10;;;3.08;;
10705;SDS011;5404;42.656;23.336;2023-08-01T03:45:21;20.52;;;4.05;;
10705;SDS011;5404;42.656;23.336;2023-08-01T03:47:47;14.88;;;3.15;;
10705;SDS011;5404;42.656;23.336;2023-08-01T03:50:12;6.53;;;2.80;;
10705;SDS011;5404;42.656;23.336;2023-08-01T03:52:38;7.35;;;3.08;;
10705;SDS011;5404;42.656;23.336;2023-08-01T03:55:04;6.90;;;3.03;;
10705;SDS011;5404;42.656;23.336;2023-08-01T03:57:30;18.25;;;4.00;;
10705;SDS011;5404;42.656;23.336;2023-08-01T03:59:58;11.40;;;5.22;;
10705;SDS011;5404;42.656;23.336;2023-08-01T04:02:24;12.15;;;6.05;;
10705;SDS011;5404;42.656;23.336;2023-08-01T04:04:49;9.25;;;5.88;;
10705;SDS011;5404;42.656;23.336;2023-08-01T04:07:15;9.30;;;5.22;;
10705;SDS011;5404;42.656;23.336;2023-08-01T04:09:40;11.55;;;5.75;;
10705;SDS011;5404;42.656;23.336;2023-08-01T04:12:05;33.08;;;6.32;;
10705;SDS011;5404;42.656;23.336;2023-08-01T04:14:32;11.63;;;5.47;;
10705;SDS011;5404;42.656;23.336;2023-08-01T04:16:57;7.95;;;5.72;;
10705;SDS011;5404;42.656;23.336;2023-08-01T04:19:23;7.57;;;5.70;;
10705;SDS011;5404;42.656;23.336;2023-08-01T04:21:49;11.82;;;6.68;;
10705;SDS011;5404;42.656;23.336;2023-08-01T04:24:15;8.95;;;5.95;;
10705;SDS011;5404;42.656;23.336;2023-08-01T04:26:41;9.23;;;5.60;;
10705;SDS011;5404;42.656;23.336;2023-08-01T04:29:06;20.00;;;5.28;;
10705;SDS011;5404;42.656;23.336;2023-08-01T04:31:32;12.82;;;5.85;;
10705;SDS011;5404;42.656;23.336;2023-08-01T04:33:57;11.88;;;6.28;;
10705;SDS011;5404;42.656;23.336;2023-08-01T04:36:23;12.27;;;5.45;;
10705;SDS011;5404;42.656;23.336;2023-08-01T04:38:48;13.35;;;6.15;;
10705;SDS011;5404;42.656;23.336;2023-08-01T04:41:14;10.25;;;5.80;;
10705;SDS011;5404;42.656;23.336;2023-08-01T04:43:39;18.98;;;6.57;;
10705;SDS011;5404;42.656;23.336;2023-08-01T04:46:05;12.40;;;6.25;;
10705;SDS011;5404;42.656;23.336;2023-08-01T04:48:30;18.73;;;6.10;;
10705;SDS011;5404;42.656;23.336;2023-08-01T04:50:55;6.93;;;5.18;;
10705;SDS011;5404;42.656;23.336;2023-08-01T04:53:21;7.97;;;5.32;;
10705;SDS011;5404;42.656;23.336;2023-08-01T04:55:46;8.10;;;5.78;;
10705;SDS011;5404;42.656;23.336;2023-08-01T04:58:12;8.95;;;5.80;;
10705;SDS011;5404;42.656;23.336;2023-08-01T05:00:37;10.00;;;6.13;;
10705;SDS011;5404;42.656;23.336;2023-08-01T05:03:05;14.75;;;5.88;;
10705;SDS011;5404;42.656;23.336;2023-08-01T05:05:30;15.02;;;6.65;;
10705;SDS011;5404;42.656;23.336;2023-08-01T05:07:56;8.15;;;6.03;;
10705;SDS011;5404;42.656;23.336;2023-08-01T05:10:21;12.45;;;6.00;;
10705;SDS011;5404;42.656;23.336;2023-08-01T05:12:47;12.38;;;5.53;;
10705;SDS011;5404;42.656;23.336;2023-08-01T05:15:12;8.25;;;5.10;;
10705;SDS011;5404;42.656;23.336;2023-08-01T05:17:38;7.55;;;5.43;;
10705;SDS011;5404;42.656;23.336;2023-08-01T05:20:03;8.75;;;5.63;;
10705;SDS011;5404;42.656;23.336;2023-08-01T05:22:29;11.93;;;5.90;;
10705;SDS011;5404;42.656;23.336;2023-08-01T05:24:54;7.47;;;5.82;;
10705;SDS011;5404;42.656;23.336;2023-08-01T05:27:20;9.30;;;5.72;;
10705;SDS011;5404;42.656;23.336;2023-08-01T05:29:45;6.88;;;5.10;;
10705;SDS011;5404;42.656;23.336;2023-08-01T05:32:11;14.13;;;4.53;;
10705;SDS011;5404;42.656;23.336;2023-08-01T05:34:36;9.50;;;5.57;;
10705;SDS011;5404;42.656;23.336;2023-08-01T05:37:02;9.50;;;5.15;;
10705;SDS011;5404;42.656;23.336;2023-08-01T05:39:27;12.23;;;5.00;;
10705;SDS011;5404;42.656;23.336;2023-08-01T05:41:53;7.80;;;4.50;;
10705;SDS011;5404;42.656;23.336;2023-08-01T05:44:18;8.32;;;4.60;;
10705;SDS011;5404;42.656;23.336;2023-08-01T05:46:44;10.32;;;5.65;;
10705;SDS011;5404;42.656;23.336;2023-08-01T05:49:09;13.07;;;5.35;;
10705;SDS011;5404;42.656;23.336;2023-08-01T05:51:35;12.98;;;4.32;;
10705;SDS011;5404;42.656;23.336;2023-08-01T05:54:00;10.43;;;5.20;;
10705;SDS011;5404;42.656;23.336;2023-08-01T05:56:25;14.55;;;4.97;;
10705;SDS011;5404;42.656;23.336;2023-08-01T05:58:51;15.50;;;4.78;;
10705;SDS011;5404;42.656;23.336;2023-08-01T06:01:16;10.43;;;4.22;;
10705;SDS011;5404;42.656;23.336;2023-08-01T06:03:42;13.55;;;4.82;;
10705;SDS011;5404;42.656;23.336;2023-08-01T06:06:07;10.77;;;4.38;;
10705;SDS011;5404;42.656;23.336;2023-08-01T06:08:33;6.05;;;3.38;;
10705;SDS011;5404;42.656;23.336;2023-08-01T06:10:59;9.98;;;3.63;;
10705;SDS011;5404;42.656;23.336;2023-08-01T06:13:24;5.40;;;2.83;;
10705;SDS011;5404;42.656;23.336;2023-08-01T06:15:49;21.92;;;4.82;;
10705;SDS011;5404;42.656;23.336;2023-08-01T06:18:15;6.22;;;2.88;;
10705;SDS011;5404;42.656;23.336;2023-08-01T06:20:40;9.23;;;3.33;;
10705;SDS011;5404;42.656;23.336;2023-08-01T06:23:06;18.42;;;4.35;;
10705;SDS011;5404;42.656;23.336;2023-08-01T06:25:31;7.90;;;3.25;;
10705;SDS011;5404;42.656;23.336;2023-08-01T06:27:57;11.48;;;3.30;;
10705;SDS011;5404;42.656;23.336;2023-08-01T06:30:22;7.72;;;2.95;;
10705;SDS011;5404;42.656;23.336;2023-08-01T06:32:47;12.50;;;3.00;;
10705;SDS011;5404;42.656;23.336;2023-08-01T06:35:13;7.70;;;2.70;;
10705;SDS011;5404;42.656;23.336;2023-08-01T06:37:38;9.45;;;2.92;;
10705;SDS011;5404;42.656;23.336;2023-08-01T06:40:04;4.72;;;3.13;;
10705;SDS011;5404;42.656;23.336;2023-08-01T06:42:30;6.28;;;3.08;;
10705;SDS011;5404;42.656;23.336;2023-08-01T06:44:56;11.30;;;3.67;;
10705;SDS011;5404;42.656;23.336;2023-08-01T06:47:21;11.10;;;3.33;;
10705;SDS011;5404;42.656;23.336;2023-08-01T06:49:46;9.65;;;3.17;;
10705;SDS011;5404;42.656;23.336;2023-08-01T06:52:12;7.20;;;3.22;;
10705;SDS011;5404;42.656;23.336;2023-08-01T06:54:37;10.98;;;3.13;;
10705;SDS011;5404;42.656;23.336;2023-08-01T06:57:03;7.85;;;3.28;;
10705;SDS011;5404;42.656;23.336;2023-08-01T06:59:29;8.05;;;2.97;;
10705;SDS011;5404;42.656;23.336;2023-08-01T07:01:55;9.38;;;3.20;;
10705;SDS011;5404;42.656;23.336;2023-08-01T07:04:20;11.93;;;3.22;;
10705;SDS011;5404;42.656;23.336;2023-08-01T07:06:46;15.40;;;4.25;;
10705;SDS011;5404;42.656;23.336;2023-08-01T07:09:11;7.10;;;3.28;;
10705;SDS011;5404;42.656;23.336;2023-08-01T07:11:36;10.57;;;3.17;;
10705;SDS011;5404;42.656;23.336;2023-08-01T07:14:02;9.18;;;3.20;;
10705;SDS011;5404;42.656;23.336;2023-08-01T07:16:27;8.20;;;3.50;;
10705;SDS011;5404;42.656;23.336;2023-08-01T07:18:54;10.15;;;3.80;;
10705;SDS011;5404;42.656;23.336;2023-08-01T07:21:20;6.22;;;3.50;;
10705;SDS011;5404;42.656;23.336;2023-08-01T07:23:46;24.90;;;4.22;;
10705;SDS011;5404;42.656;23.336;2023-08-01T07:26:13;11.18;;;3.58;;
10705;SDS011;5404;42.656;23.336;2023-08-01T07:28:38;6.18;;;3.05;;
10705;SDS011;5404;42.656;23.336;2023-08-01T07:31:05;14.23;;;3.35;;
10705;SDS011;5404;42.656;23.336;2023-08-01T07:33:34;7.97;;;4.10;;
10705;SDS011;5404;42.656;23.336;2023-08-01T07:38:25;13.13;;;3.20;;
10705;SDS011;5404;42.656;23.336;2023-08-01T07:40:54;3.30;;;2.65;;
10705;SDS011;5404;42.656;23.336;2023-08-01T07:43:20;8.00;;;3.13;;
10705;SDS011;5404;42.656;23.336;2023-08-01T07:45:45;14.00;;;3.90;;
10705;SDS011;5404;42.656;23.336;2023-08-01T07:48:11;10.32;;;3.65;;
10705;SDS011;5404;42.656;23.336;2023-08-01T07:50:37;10.40;;;3.70;;
10705;SDS011;5404;42.656;23.336;2023-08-01T07:53:02;11.27;;;3.33;;
10705;SDS011;5404;42.656;23.336;2023-08-01T07:55:28;10.85;;;3.72;;
10705;SDS011;5404;42.656;23.336;2023-08-01T07:57:53;5.55;;;3.92;;
10705;SDS011;5404;42.656;23.336;2023-08-01T08:00:19;7.05;;;3.10;;
10705;SDS011;5404;42.656;23.336;2023-08-01T08:02:45;9.77;;;3.70;;
10705;SDS011;5404;42.656;23.336;2023-08-01T08:05:11;7.78;;;4.07;;
10705;SDS011;5404;42.656;23.336;2023-08-01T08:07:37;7.07;;;3.97;;
10705;SDS011;5404;42.656;23.336;2023-08-01T08:10:03;15.18;;;3.92;;
10705;SDS011;5404;42.656;23.336;2023-08-01T08:12:29;6.60;;;3.67;;
10705;SDS011;5404;42.656;23.336;2023-08-01T08:14:55;12.02;;;4.75;;
10705;SDS011;5404;42.656;23.336;2023-08-01T08:17:20;6.38;;;3.47;;
10705;SDS011;5404;42.656;23.336;2023-08-01T08:19:46;5.00;;;3.35;;
10705;SDS011;5404;42.656;23.336;2023-08-01T08:22:11;12.48;;;3.80;;
10705;SDS011;5404;42.656;23.336;2023-08-01T08:24:37;16.00;;;3.80;;
10705;SDS011;5404;42.656;23.336;2023-08-01T08:27:02;13.70;;;3.88;;
10705;SDS011;5404;42.656;23.336;2023-08-01T08:29:28;7.10;;;3.70;;
10705;SDS011;5404;42.656;23.336;2023-08-01T08:31:54;10.65;;;4.35;;
10705;SDS011;5404;42.656;23.336;2023-08-01T08:34:20;10.02;;;3.88;;
10705;SDS011;5404;42.656;23.336;2023-08-01T08:36:45;5.97;;;4.30;;
10705;SDS011;5404;42.656;23.336;2023-08-01T08:39:11;11.45;;;4.90;;
10705;SDS011;5404;42.656;23.336;2023-08-01T08:41:43;10.43;;;4.93;;
10705;SDS011;5404;42.656;23.336;2023-08-01T08:44:12;8.00;;;4.00;;
10705;SDS011;5404;42.656;23.336;2023-08-01T08:46:42;9.85;;;3.97;;
10705;SDS011;5404;42.656;23.336;2023-08-01T08:49:08;8.27;;;3.72;;
10705;SDS011;5404;42.656;23.336;2023-08-01T08:51:35;7.90;;;3.88;;
10705;SDS011;5404;42.656;23.336;2023-08-01T08:54:02;6.60;;;3.73;;
10705;SDS011;5404;42.656;23.336;2023-08-01T08:56:29;10.77;;;3.95;;
10705;SDS011;5404;42.656;23.336;2023-08-01T08:58:56;12.23;;;3.88;;
10705;SDS011;5404;42.656;23.336;2023-08-01T09:01:21;5.72;;;3.50;;
10705;SDS011;5404;42.656;23.336;2023-08-01T09:03:47;22.27;;;4.93;;
10705;SDS011;5404;42.656;23.336;2023-08-01T09:06:16;7.88;;;3.67;;
10705;SDS011;5404;42.656;23.336;2023-08-01T09:08:51;8.20;;;3.40;;
10705;SDS011;5404;42.656;23.336;2023-08-01T09:11:47;14.88;;;4.07;;
10705;SDS011;5404;42.656;23.336;2023-08-01T09:14:14;5.90;;;3.63;;
10705;SDS011;5404;42.656;23.336;2023-08-01T09:16:41;12.63;;;4.80;;
10705;SDS011;5404;42.656;23.336;2023-08-01T09:19:09;13.00;;;4.65;;
10705;SDS011;5404;42.656;23.336;2023-08-01T09:21:35;14.43;;;4.07;;
10705;SDS011;5404;42.656;23.336;2023-08-01T09:24:07;12.70;;;3.97;;
10705;SDS011;5404;42.656;23.336;2023-08-01T09:26:37;5.55;;;3.55;;
10705;SDS011;5404;42.656;23.336;2023-08-01T09:29:03;10.77;;;3.60;;
10705;SDS011;5404;42.656;23.336;2023-08-01T09:31:29;4.97;;;3.65;;
10705;SDS011;5404;42.656;23.336;2023-08-01T09:33:56;9.30;;;3.72;;
10705;SDS011;5404;42.656;23.336;2023-08-01T09:36:22;8.73;;;3.78;;
10705;SDS011;5404;42.656;23.336;2023-08-01T09:38:49;9.18;;;3.80;;
10705;SDS011;5404;42.656;23.336;2023-08-01T09:41:18;8.80;;;4.70;;
10705;SDS011;5404;42.656;23.336;2023-08-01T09:43:44;6.60;;;3.70;;
10705;SDS011;5404;42.656;23.336;2023-08-01T09:46:11;11.25;;;3.83;;
10705;SDS011;5404;42.656;23.336;2023-08-01T09:48:36;8.07;;;3.35;;
10705;SDS011;5404;42.656;23.336;2023-08-01T09:53:36;5.93;;;3.40;;
10705;SDS011;5404;42.656;23.336;2023-08-01T09:56:13;9.05;;;3.70;;
10705;SDS011;5404;42.656;23.336;2023-08-01T09:58:41;13.70;;;4.45;;
10705;SDS011;5404;42.656;23.336;2023-08-01T10:01:08;9.85;;;3.42;;
10705;SDS011;5404;42.656;23.336;2023-08-01T10:03:33;8.07;;;3.60;;
10705;SDS011;5404;42.656;23.336;2023-08-01T10:05:59;7.13;;;3.80;;
10705;SDS011;5404;42.656;23.336;2023-08-01T10:08:25;9.70;;;3.80;;
10705;SDS011;5404;42.656;23.336;2023-08-01T10:10:53;8.85;;;3.78;;
10705;SDS011;5404;42.656;23.336;2023-08-01T10:13:21;5.82;;;3.67;;
10705;SDS011;5404;42.656;23.336;2023-08-01T10:15:49;8.17;;;3.57;;
10705;SDS011;5404;42.656;23.336;2023-08-01T10:18:16;14.38;;;3.90;;
10705;SDS011;5404;42.656;23.336;2023-08-01T10:20:42;7.20;;;3.80;;
10705;SDS011;5404;42.656;23.336;2023-08-01T10:23:09;7.03;;;3.55;;
10705;SDS011;5404;42.656;23.336;2023-08-01T10:25:35;7.32;;;3.97;;
10705;SDS011;5404;42.656;23.336;2023-08-01T10:28:05;9.82;;;4.03;;
10705;SDS011;5404;42.656;23.336;2023-08-01T10:30:31;6.97;;;3.47;;
10705;SDS011;5404;42.656;23.336;2023-08-01T10:32:57;6.43;;;3.38;;
10705;SDS011;5404;42.656;23.336;2023-08-01T10:35:34;5.68;;;3.78;;
10705;SDS011;5404;42.656;23.336;2023-08-01T10:38:11;14.30;;;3.75;;
10705;SDS011;5404;42.656;23.336;2023-08-01T10:40:40;6.75;;;3.45;;
10705;SDS011;5404;42.656;23.336;2023-08-01T10:43:23;6.30;;;3.70;;
10705;SDS011;5404;42.656;23.336;2023-08-01T10:46:05;8.23;;;4.05;;
10705;SDS011;5404;42.656;23.336;2023-08-01T10:48:30;9.95;;;4.35;;
10705;SDS011;5404;42.656;23.336;2023-08-01T10:50:56;9.32;;;4.03;;
10705;SDS011;5404;42.656;23.336;2023-08-01T10:53:22;9.57;;;3.90;;
10705;SDS011;5404;42.656;23.336;2023-08-01T10:55:48;10.70;;;3.92;;
10705;SDS011;5404;42.656;23.336;2023-08-01T10:58:14;8.32;;;4.03;;
10705;SDS011;5404;42.656;23.336;2023-08-01T11:00:41;5.90;;;3.92;;
10705;SDS011;5404;42.656;23.336;2023-08-01T11:03:07;8.70;;;3.67;;
10705;SDS011;5404;42.656;23.336;2023-08-01T11:05:33;8.25;;;3.35;;
10705;SDS011;5404;42.656;23.336;2023-08-01T11:07:59;7.40;;;3.58;;
10705;SDS011;5404;42.656;23.336;2023-08-01T11:10:26;18.93;;;3.97;;
10705;SDS011;5404;42.656;23.336;2023-08-01T11:12:55;9.70;;;3.80;;
10705;SDS011;5404;42.656;23.336;2023-08-01T11:15:21;8.43;;;4.18;;
10705;SDS011;5404;42.656;23.336;2023-08-01T11:17:48;8.57;;;4.07;;
10705;SDS011;5404;42.656;23.336;2023-08-01T11:20:18;10.88;;;3.45;;
10705;SDS011;5404;42.656;23.336;2023-08-01T11:25:15;5.65;;;2.92;;
10705;SDS011;5404;42.656;23.336;2023-08-01T11:27:41;11.88;;;3.42;;
10705;SDS011;5404;42.656;23.336;2023-08-01T11:30:07;9.57;;;3.35;;
10705;SDS011;5404;42.656;23.336;2023-08-01T11:32:35;4.28;;;2.85;;
10705;SDS011;5404;42.656;23.336;2023-08-01T11:35:02;7.82;;;3.42;;
10705;SDS011;5404;42.656;23.336;2023-08-01T11:37:29;6.40;;;3.13;;
10705;SDS011;5404;42.656;23.336;2023-08-01T11:39:55;7.38;;;3.65;;
10705;SDS011;5404;42.656;23.336;2023-08-01T11:42:22;8.05;;;3.60;;
10705;SDS011;5404;42.656;23.336;2023-08-01T11:44:48;5.78;;;3.10;;
10705;SDS011;5404;42.656;23.336;2023-08-01T11:47:14;9.50;;;3.33;;
10705;SDS011;5404;42.656;23.336;2023-08-01T11:49:47;4.88;;;3.15;;
10705;SDS011;5404;42.656;23.336;2023-08-01T11:52:26;3.60;;;3.00;;
10705;SDS011;5404;42.656;23.336;2023-08-01T11:54:52;5.05;;;2.97;;
10705;SDS011;5404;42.656;23.336;2023-08-01T11:57:22;15.05;;;3.30;;
10705;SDS011;5404;42.656;23.336;2023-08-01T11:59:48;11.60;;;3.90;;
10705;SDS011;5404;42.656;23.336;2023-08-01T12:02:21;8.13;;;2.88;;
10705;SDS011;5404;42.656;23.336;2023-08-01T12:04:50;6.20;;;3.22;;
10705;SDS011;5404;42.656;23.336;2023-08-01T12:07:17;7.07;;;3.40;;
10705;SDS011;5404;42.656;23.336;2023-08-01T12:09:43;4.28;;;3.08;;
10705;SDS011;5404;42.656;23.336;2023-08-01T12:12:09;5.68;;;3.03;;
10705;SDS011;5404;42.656;23.336;2023-08-01T12:14:41;16.25;;;3.92;;
10705;SDS011;5404;42.656;23.336;2023-08-01T12:17:07;4.35;;;3.00;;
10705;SDS011;5404;42.656;23.336;2023-08-01T12:19:32;5.80;;;3.03;;
10705;SDS011;5404;42.656;23.336;2023-08-01T12:21:59;4.07;;;2.83;;
10705;SDS011;5404;42.656;23.336;2023-08-01T12:24:24;7.80;;;3.67;;
10705;SDS011;5404;42.656;23.336;2023-08-01T12:26:50;14.20;;;3.38;;
10705;SDS011;5404;42.656;23.336;2023-08-01T12:29:15;5.55;;;2.85;;
10705;SDS011;5404;42.656;23.336;2023-08-01T12:31:41;7.13;;;3.78;;
10705;SDS011;5404;42.656;23.336;2023-08-01T12:34:06;10.70;;;3.63;;
10705;SDS011;5404;42.656;23.336;2023-08-01T12:36:31;7.13;;;2.80;;
10705;SDS011;5404;42.656;23.336;2023-08-01T12:38:57;6.95;;;3.20;;
10705;SDS011;5404;42.656;23.336;2023-08-01T12:41:22;8.05;;;3.70;;
10705;SDS011;5404;42.656;23.336;2023-08-01T12:43:48;9.70;;;3.40;;
10705;SDS011;5404;42.656;23.336;2023-08-01T12:46:13;9.02;;;3.20;;
10705;SDS011;5404;42.656;23.336;2023-08-01T12:48:39;7.07;;;3.08;;
10705;SDS011;5404;42.656;23.336;2023-08-01T12:51:04;11.07;;;3.90;;
10705;SDS011;5404;42.656;23.336;2023-08-01T12:53:30;7.78;;;3.42;;
10705;SDS011;5404;42.656;23.336;2023-08-01T12:55:55;10.85;;;3.72;;
10705;SDS011;5404;42.656;23.336;2023-08-01T12:58:20;7.43;;;3.50;;
10705;SDS011;5404;42.656;23.336;2023-08-01T13:00:46;4.93;;;2.85;;
10705;SDS011;5404;42.656;23.336;2023-08-01T13:03:12;5.50;;;3.35;;
10705;SDS011;5404;42.656;23.336;2023-08-01T13:05:38;4.07;;;2.90;;
10705;SDS011;5404;42.656;23.336;2023-08-01T13:08:04;4.93;;;3.10;;
10705;SDS011;5404;42.656;23.336;2023-08-01T13:10:31;10.07;;;3.35;;
10705;SDS011;5404;42.656;23.336;2023-08-01T13:13:00;5.57;;;3.00;;
10705;SDS011;5404;42.656;23.336;2023-08-01T13:15:25;7.25;;;3.72;;
10705;SDS011;5404;42.656;23.336;2023-08-01T13:17:52;11.38;;;3.33;;
10705;SDS011;5404;42.656;23.336;2023-08-01T13:20:18;6.05;;;2.40;;
10705;SDS011;5404;42.656;23.336;2023-08-01T13:22:45;4.30;;;2.65;;
10705;SDS011;5404;42.656;23.336;2023-08-01T13:25:12;3.75;;;2.70;;
10705;SDS011;5404;42.656;23.336;2023-08-01T13:27:38;4.22;;;2.13;;
10705;SDS011;5404;42.656;23.336;2023-08-01T13:30:03;2.75;;;2.20;;
10705;SDS011;5404;42.656;23.336;2023-08-01T13:32:29;6.30;;;2.40;;
10705;SDS011;5404;42.656;23.336;2023-08-01T13:34:55;2.38;;;1.83;;
10705;SDS011;5404;42.656;23.336;2023-08-01T13:37:21;8.77;;;2.50;;
10705;SDS011;5404;42.656;23.336;2023-08-01T13:39:46;6.22;;;2.88;;
10705;SDS011;5404;42.656;23.336;2023-08-01T13:42:12;5.40;;;2.88;;
10705;SDS011;5404;42.656;23.336;2023-08-01T13:44:38;4.07;;;2.35;;
10705;SDS011;5404;42.656;23.336;2023-08-01T13:47:03;4.43;;;2.25;;
10705;SDS011;5404;42.656;23.336;2023-08-01T13:49:29;2.88;;;2.17;;
10705;SDS011;5404;42.656;23.336;2023-08-01T13:51:55;3.70;;;2.38;;
10705;SDS011;5404;42.656;23.336;2023-08-01T13:54:20;4.30;;;2.60;;
10705;SDS011;5404;42.656;23.336;2023-08-01T13:56:45;4.13;;;2.75;;
10705;SDS011;5404;42.656;23.336;2023-08-01T13:59:11;3.15;;;2.47;;
10705;SDS011;5404;42.656;23.336;2023-08-01T14:01:36;8.63;;;2.08;;
10705;SDS011;5404;42.656;23.336;2023-08-01T14:04:04;4.88;;;2.15;;
10705;SDS011;5404;42.656;23.336;2023-08-01T14:06:29;6.75;;;2.10;;
10705;SDS011;5404;42.656;23.336;2023-08-01T14:08:55;2.47;;;2.03;;
10705;SDS011;5404;42.656;23.336;2023-08-01T14:11:20;3.22;;;2.05;;
10705;SDS011;5404;42.656;23.336;2023-08-01T14:13:46;8.57;;;2.30;;
10705;SDS011;5404;42.656;23.336;2023-08-01T14:16:11;4.07;;;2.42;;
10705;SDS011;5404;42.656;23.336;2023-08-01T14:18:37;2.75;;;2.30;;
10705;SDS011;5404;42.656;23.336;2023-08-01T14:21:02;2.63;;;1.98;;
10705;SDS011;5404;42.656;23.336;2023-08-01T14:23:28;8.02;;;2.50;;
10705;SDS011;5404;42.656;23.336;2023-08-01T14:25:54;3.20;;;2.05;;
10705;SDS011;5404;42.656;23.336;2023-08-01T14:28:22;4.53;;;2.80;;
10705;SDS011;5404;42.656;23.336;2023-08-01T14:30:47;2.90;;;2.10;;
10705;SDS011;5404;42.656;23.336;2023-08-01T14:33:12;2.35;;;1.83;;
10705;SDS011;5404;42.656;23.336;2023-08-01T14:35:39;4.10;;;2.30;;
10705;SDS011;5404;42.656;23.336;2023-08-01T14:38:05;3.28;;;1.95;;
10705;SDS011;5404;42.656;23.336;2023-08-01T14:40:30;3.58;;;2.53;;
10705;SDS011;5404;42.656;23.336;2023-08-01T14:42:56;3.22;;;2.60;;
10705;SDS011;5404;42.656;23.336;2023-08-01T14:45:22;6.85;;;2.88;;
10705;SDS011;5404;42.656;23.336;2023-08-01T14:47:48;7.75;;;3.13;;